createdAt,value
2023-04-13T00:15:47.466Z,9.762827
2023-04-13T00:16:47.480Z,9.763003
2023-04-13T00:17:47.580Z,9.763054
2023-04-13T00:18:47.549Z,9.763054
2023-04-13T00:19:47.439Z,9.762622
2023-04-13T00:20:47.429Z,9.762931
2023-04-13T00:21:47.413Z,9.762855
2023-04-13T00:22:47.400Z,9.762843
2023-04-13T00:23:47.379Z,9.762794
2023-04-13T00:24:47.409Z,9.762762
2023-04-13T00:25:47.378Z,9.762849
2023-04-13T00:26:47.390Z,9.762957
2023-04-13T00:27:47.350Z,9.763111
2023-04-13T00:28:47.334Z,9.763036
2023-04-13T00:29:47.343Z,9.762869
2023-04-13T00:30:47.420Z,9.762860
2023-04-13T00:31:47.318Z,9.762838
2023-04-13T00:32:47.316Z,9.762822
2023-04-13T00:33:47.306Z,9.763085
2023-04-13T00:34:47.305Z,9.762698
2023-04-13T00:35:47.268Z,9.762698
2023-04-13T00:36:47.267Z,9.762670
2023-04-13T00:37:47.319Z,9.763042
2023-04-13T00:38:47.260Z,9.763042
2023-04-13T00:39:47.252Z,9.763042
2023-04-13T00:40:47.240Z,9.763042
2023-04-13T00:41:47.218Z,9.763042
2023-04-13T00:42:47.229Z,9.762931
2023-04-13T00:43:47.202Z,9.762900
2023-04-13T00:44:47.201Z,9.762719
2023-04-13T00:45:47.286Z,9.762822
2023-04-13T00:46:47.256Z,9.763018
2023-04-13T00:47:48.272Z,9.762799
2023-04-13T00:48:47.151Z,9.762826
2023-04-13T00:49:47.159Z,9.763083
2023-04-13T00:50:47.143Z,9.763067
2023-04-13T00:51:47.101Z,9.762911
2023-04-13T00:52:47.133Z,9.762743
2023-04-13T00:53:47.084Z,9.762729
2023-04-13T00:54:47.090Z,9.762788
2023-04-13T00:55:47.068Z,9.762883
2023-04-13T00:56:47.059Z,9.762785
2023-04-13T00:57:47.075Z,9.762804
2023-04-13T00:58:47.041Z,9.762782
2023-04-13T00:59:47.072Z,9.762762
2023-04-13T01:00:47.055Z,9.762727
2023-04-13T01:01:47.132Z,9.762502
2023-04-13T01:02:47.055Z,9.762597
2023-04-13T01:03:47.012Z,9.762728
2023-04-13T01:04:47.005Z,9.763068
2023-04-13T01:05:47.009Z,9.763151
2023-04-13T01:06:46.961Z,9.762715
2023-04-13T01:07:46.948Z,9.762757
2023-04-13T01:08:46.952Z,9.762928
2023-04-13T01:09:46.941Z,9.762855
2023-04-13T01:10:46.952Z,9.762875
2023-04-13T01:11:46.925Z,9.762784
2023-04-13T01:12:46.898Z,9.762782
2023-04-13T01:13:46.936Z,9.761376
2023-04-13T01:14:46.952Z,9.762600
2023-04-13T01:15:46.909Z,9.762600
2023-04-13T01:16:46.866Z,9.762600
2023-04-13T01:17:46.919Z,9.762600
2023-04-13T01:18:46.837Z,9.762600
2023-04-13T01:19:46.859Z,9.762600
2023-04-13T01:20:46.866Z,9.762600
2023-04-13T01:21:46.873Z,9.762600
2023-04-13T01:22:46.829Z,9.762600
2023-04-13T01:23:46.821Z,9.762600
2023-04-13T01:24:46.843Z,9.762600
2023-04-13T01:25:46.794Z,9.762600
2023-04-13T01:26:46.812Z,9.762600
2023-04-13T01:27:46.787Z,9.762600
2023-04-13T01:28:46.793Z,9.762600
2023-04-13T01:29:46.776Z,9.762600
2023-04-13T01:30:46.768Z,9.762600
2023-04-13T01:31:46.759Z,9.762600
2023-04-13T01:32:46.839Z,9.762600
2023-04-13T01:33:46.740Z,9.762600
2023-04-13T01:34:46.733Z,9.762600
2023-04-13T01:35:46.718Z,9.762600
2023-04-13T01:36:46.698Z,9.762600
2023-04-13T01:37:46.696Z,9.762600
2023-04-13T01:38:46.696Z,9.762600
2023-04-13T01:39:48.333Z,9.762600
2023-04-13T01:40:46.639Z,9.762600
2023-04-13T01:41:46.659Z,9.762600
2023-04-13T01:42:46.632Z,9.762600
2023-04-13T01:43:46.624Z,9.762600
2023-04-13T01:44:46.629Z,9.762600
2023-04-13T01:45:46.599Z,9.762600
2023-04-13T01:46:46.619Z,9.762600
2023-04-13T01:47:46.691Z,9.762600
2023-04-13T01:48:46.576Z,9.762600
2023-04-13T01:49:46.608Z,9.762600
2023-04-13T01:50:46.543Z,9.762600
2023-04-13T01:51:46.535Z,9.762600
2023-04-13T01:52:46.553Z,9.762600
2023-04-13T01:53:46.509Z,9.762600
2023-04-13T01:54:46.563Z,9.762600
2023-04-13T01:55:46.552Z,9.762600
2023-04-13T01:56:46.482Z,9.762600
2023-04-13T01:57:46.482Z,9.762600
2023-04-13T01:58:46.482Z,9.762600
2023-04-13T01:59:46.543Z,9.762600
2023-04-13T02:00:46.474Z,9.762600
2023-04-13T02:01:46.457Z,9.762600
2023-04-13T02:02:46.584Z,9.762600
2023-04-13T02:03:46.465Z,9.762600
2023-04-13T02:04:46.475Z,9.762600
2023-04-13T02:05:46.402Z,9.762600
2023-04-13T02:06:46.410Z,9.762600
2023-04-13T02:07:46.395Z,9.762600
2023-04-13T02:08:46.408Z,9.762600
2023-04-13T02:09:46.398Z,9.762600
2023-04-13T02:10:46.357Z,9.762600
2023-04-13T02:11:46.344Z,9.762600
2023-04-13T02:12:46.364Z,9.762600
2023-04-13T02:13:46.342Z,9.762600
2023-04-13T02:14:46.349Z,9.762600
2023-04-13T02:15:46.302Z,9.762600
2023-04-13T02:16:46.363Z,9.762600
2023-04-13T02:17:46.361Z,9.762600
2023-04-13T02:18:46.286Z,9.762600
2023-04-13T02:19:46.278Z,9.762600
2023-04-13T02:20:46.261Z,9.762600
2023-04-13T02:21:46.251Z,9.762600
2023-04-13T02:22:46.251Z,9.762600
2023-04-13T02:23:46.217Z,9.762600
2023-04-13T02:24:46.233Z,9.762600
2023-04-13T02:25:47.687Z,9.762600
2023-04-13T02:26:47.171Z,9.762600
2023-04-13T02:27:46.221Z,9.762600
2023-04-13T02:28:46.180Z,9.762600
2023-04-13T02:29:46.211Z,9.762600
2023-04-13T02:30:46.174Z,9.762600
2023-04-13T02:31:46.168Z,9.762600
2023-04-13T02:32:46.202Z,9.762600
2023-04-13T02:33:46.153Z,9.762600
2023-04-13T02:34:46.144Z,9.762600
2023-04-13T02:35:46.131Z,9.762600
2023-04-13T02:36:46.092Z,9.762600
2023-04-13T02:37:46.079Z,9.762600
2023-04-13T02:38:46.069Z,9.762600
2023-04-13T02:39:46.081Z,9.762600
2023-04-13T02:40:46.059Z,9.762600
2023-04-13T02:41:46.064Z,9.762600
2023-04-13T02:42:46.031Z,9.762600
2023-04-13T02:43:46.030Z,9.762600
2023-04-13T02:44:45.997Z,9.762600
2023-04-13T02:45:46.053Z,9.762600
2023-04-13T02:46:45.978Z,9.762600
2023-04-13T02:47:46.010Z,9.762600
2023-04-13T02:48:45.953Z,9.762600
2023-04-13T02:49:45.947Z,9.762600
2023-04-13T02:50:45.990Z,9.762600
2023-04-13T02:51:45.940Z,9.762600
2023-04-13T02:52:45.929Z,9.762600
2023-04-13T02:53:45.917Z,9.762600
2023-04-13T02:54:45.910Z,9.762600
2023-04-13T02:55:45.896Z,9.762600
2023-04-13T02:56:45.875Z,9.762600
2023-04-13T02:57:45.861Z,9.762600
2023-04-13T02:58:45.869Z,9.762600
2023-04-13T02:59:45.855Z,9.762600
2023-04-13T03:00:45.863Z,9.762600
2023-04-13T03:01:46.043Z,9.762600
2023-04-13T03:02:45.982Z,9.762600
2023-04-13T03:03:45.847Z,9.762600
2023-04-13T03:04:45.829Z,9.762600
2023-04-13T03:05:45.799Z,9.762600
2023-04-13T03:06:45.791Z,9.762600
2023-04-13T03:07:45.800Z,9.762600
2023-04-13T03:08:45.792Z,9.762600
2023-04-13T03:09:45.753Z,9.762600
2023-04-13T03:10:45.742Z,9.762600
2023-04-13T03:11:45.780Z,9.762600
2023-04-13T03:12:45.715Z,9.762600
2023-04-13T03:13:45.687Z,9.762600
2023-04-13T03:14:45.697Z,9.762600
2023-04-13T03:15:45.699Z,9.762600
2023-04-13T03:16:45.723Z,9.762600
2023-04-13T03:17:45.790Z,9.762600
2023-04-13T03:18:45.650Z,9.762600
2023-04-13T03:19:45.659Z,9.762600
2023-04-13T03:20:45.643Z,9.762600
2023-04-13T03:21:45.607Z,9.762600
2023-04-13T03:22:45.621Z,9.762600
2023-04-13T03:23:45.610Z,9.762600
2023-04-13T03:24:45.582Z,9.762600
2023-04-13T03:25:45.594Z,9.762600
2023-04-13T03:26:45.563Z,9.762600
2023-04-13T03:27:45.563Z,9.762600
2023-04-13T03:28:45.548Z,9.762600
2023-04-13T03:29:45.537Z,9.762600
2023-04-13T03:30:45.589Z,9.762600
2023-04-13T03:31:45.599Z,9.762600
2023-04-13T03:32:45.580Z,9.762600
2023-04-13T03:33:45.538Z,9.762600
2023-04-13T03:34:45.569Z,9.762600
2023-04-13T03:35:45.498Z,9.762600
2023-04-13T03:36:45.489Z,9.762600
2023-04-13T03:37:45.443Z,9.762600
2023-04-13T03:38:45.457Z,9.762600
2023-04-13T03:39:45.443Z,9.762600
2023-04-13T03:40:45.436Z,9.762600
2023-04-13T03:41:45.413Z,9.762600
2023-04-13T03:42:45.386Z,9.762600
2023-04-13T03:43:45.399Z,9.762600
2023-04-13T03:44:45.394Z,9.762600
2023-04-13T03:45:45.375Z,9.762600
2023-04-13T03:46:45.462Z,9.762600
2023-04-13T03:47:45.416Z,9.762600
2023-04-13T03:48:45.342Z,9.762600
2023-04-13T03:49:45.348Z,9.762600
2023-04-13T03:50:45.327Z,9.762600
2023-04-13T03:51:45.317Z,9.762600
2023-04-13T03:52:45.307Z,9.762600
2023-04-13T03:53:46.285Z,9.762600
2023-04-13T03:54:45.377Z,9.762600
2023-04-13T03:55:45.305Z,9.762600
2023-04-13T03:56:45.256Z,9.762600
2023-04-13T03:57:45.253Z,9.762600
2023-04-13T03:58:45.249Z,9.762600
2023-04-13T03:59:45.213Z,9.762600
2023-04-13T04:00:45.251Z,9.762600
2023-04-13T04:01:45.262Z,9.762600
2023-04-13T04:02:45.291Z,9.762600
2023-04-13T04:03:45.293Z,9.762600
2023-04-13T04:04:45.291Z,9.762600
2023-04-13T04:05:45.184Z,9.762600
2023-04-13T04:06:45.181Z,9.762600
2023-04-13T04:07:45.162Z,9.762600
2023-04-13T04:08:45.169Z,9.762600
2023-04-13T04:09:45.132Z,9.762600
2023-04-13T04:10:45.144Z,9.762600
2023-04-13T04:11:45.139Z,9.762600
2023-04-13T04:12:45.093Z,9.762600
2023-04-13T04:13:45.093Z,9.762600
2023-04-13T04:14:45.114Z,9.762600
2023-04-13T04:15:45.086Z,9.762600
2023-04-13T04:16:45.095Z,9.762600
2023-04-13T04:17:45.047Z,9.762600
2023-04-13T04:18:45.056Z,9.762600
2023-04-13T04:19:45.019Z,9.762600
2023-04-13T04:20:45.044Z,9.762600
2023-04-13T04:21:45.045Z,9.762600
2023-04-13T04:22:45.018Z,9.762600
2023-04-13T04:23:44.987Z,9.762600
2023-04-13T04:24:44.974Z,9.762600
2023-04-13T04:25:44.940Z,9.762600
2023-04-13T04:26:44.949Z,9.762600
2023-04-13T04:27:44.975Z,9.762600
2023-04-13T04:28:44.920Z,9.762600
2023-04-13T04:29:45.928Z,9.762600
2023-04-13T04:30:44.921Z,9.762600
2023-04-13T04:31:44.921Z,9.762600
2023-04-13T04:32:44.959Z,9.762600
2023-04-13T04:33:44.895Z,9.762600
2023-04-13T04:34:44.867Z,9.762600
2023-04-13T04:35:44.893Z,9.762600
2023-04-13T04:36:44.861Z,9.762600
2023-04-13T04:37:44.854Z,9.762600
2023-04-13T04:38:44.832Z,9.762600
2023-04-13T04:39:44.829Z,9.762600
2023-04-13T04:40:44.893Z,9.762600
2023-04-13T04:41:44.823Z,9.762600
2023-04-13T04:42:44.783Z,9.762600
2023-04-13T04:43:44.782Z,9.762600
2023-04-13T04:44:44.758Z,9.762600
2023-04-13T04:45:44.801Z,9.762600
2023-04-13T04:46:44.744Z,9.762600
2023-04-13T04:47:44.896Z,9.762600
2023-04-13T04:48:44.736Z,9.762600
2023-04-13T04:49:44.749Z,9.762600
2023-04-13T04:50:44.741Z,9.762600
2023-04-13T04:51:44.737Z,9.762600
2023-04-13T04:52:44.700Z,9.762600
2023-04-13T04:53:45.698Z,9.762600
2023-04-13T04:54:44.662Z,9.762600
2023-04-13T04:55:44.652Z,9.762600
2023-04-13T04:56:44.629Z,9.762600
2023-04-13T04:57:44.625Z,9.762600
2023-04-13T04:58:44.608Z,9.762600
2023-04-13T04:59:44.647Z,9.762600
2023-04-13T05:00:44.596Z,9.762600
2023-04-13T05:01:44.653Z,9.762600
2023-04-13T05:02:44.635Z,9.762600
2023-04-13T05:03:44.586Z,9.762600
2023-04-13T05:04:44.577Z,9.762600
2023-04-13T05:05:44.717Z,9.762600
2023-04-13T05:06:44.619Z,9.762600
2023-04-13T05:07:44.532Z,9.762600
2023-04-13T05:08:44.507Z,9.762600
2023-04-13T05:09:44.529Z,9.762600
2023-04-13T05:10:44.507Z,9.762600
2023-04-13T05:11:44.496Z,9.762600
2023-04-13T05:12:44.498Z,9.762600
2023-04-13T05:13:44.480Z,9.762600
2023-04-13T05:14:44.448Z,9.762600
2023-04-13T05:15:44.487Z,9.762600
2023-04-13T05:16:44.444Z,9.762600
2023-04-13T05:17:44.446Z,9.762600
2023-04-13T05:18:44.466Z,9.762600
2023-04-13T05:19:44.415Z,9.762600
2023-04-13T05:20:44.408Z,9.762600
2023-04-13T05:21:44.384Z,9.762600
2023-04-13T05:22:44.459Z,9.762600
2023-04-13T05:23:44.361Z,9.762600
2023-04-13T05:24:44.369Z,9.762600
2023-04-13T05:25:44.354Z,9.762600
2023-04-13T05:26:44.338Z,9.762600
2023-04-13T05:27:44.380Z,9.762600
2023-04-13T05:28:44.347Z,9.762600
2023-04-13T05:29:46.229Z,9.762600
2023-04-13T05:30:44.325Z,9.762600
2023-04-13T05:31:44.351Z,9.762600
2023-04-13T05:32:44.294Z,9.762600
2023-04-13T05:33:44.267Z,9.762600
2023-04-13T05:34:44.266Z,9.762600
2023-04-13T05:35:44.236Z,9.762600
2023-04-13T05:36:44.290Z,9.762600
2023-04-13T05:37:44.244Z,9.762860
2023-04-13T05:38:44.219Z,9.763023
2023-04-13T05:39:44.234Z,9.763061
2023-04-13T05:40:44.199Z,9.763055
2023-04-13T05:41:44.243Z,9.762956
2023-04-13T05:42:44.209Z,9.762958
2023-04-13T05:43:45.194Z,9.762735
2023-04-13T05:44:44.194Z,9.762774
2023-04-13T05:45:44.278Z,9.762774
2023-04-13T05:46:44.177Z,9.762774
2023-04-13T05:47:44.206Z,9.762774
2023-04-13T05:48:44.131Z,9.762774
2023-04-13T05:49:44.149Z,9.762774
2023-04-13T05:50:44.179Z,9.762774
2023-04-13T05:51:44.160Z,9.762774
2023-04-13T05:52:44.084Z,9.762774
2023-04-13T05:53:44.150Z,9.762774
2023-04-13T05:54:44.069Z,9.762774
2023-04-13T05:55:47.456Z,9.762774
2023-04-13T05:56:44.060Z,9.762774
2023-04-13T05:57:44.099Z,9.762774
2023-04-13T05:58:44.038Z,9.762774
2023-04-13T05:59:44.026Z,9.762774
2023-04-13T06:00:44.073Z,9.762774
2023-04-13T06:01:44.024Z,9.762774
2023-04-13T06:02:44.213Z,9.762774
2023-04-13T06:03:44.157Z,9.762774
2023-04-13T06:04:44.013Z,9.762774
2023-04-13T06:05:44.016Z,9.762774
2023-04-13T06:06:43.982Z,9.762774
2023-04-13T06:07:43.961Z,9.762774
2023-04-13T06:08:43.920Z,9.762774
2023-04-13T06:09:43.937Z,9.762774
2023-04-13T06:10:43.948Z,9.762774
2023-04-13T06:11:43.961Z,9.762774
2023-04-13T06:12:43.898Z,9.762774
2023-04-13T06:13:43.882Z,9.762774
2023-04-13T06:14:43.852Z,9.762774
2023-04-13T06:15:43.887Z,9.762774
2023-04-13T06:16:43.936Z,9.762774
2023-04-13T06:17:43.873Z,9.762698
2023-04-13T06:18:43.835Z,9.763514
2023-04-13T06:19:43.846Z,9.762716
2023-04-13T06:20:43.831Z,9.762833
2023-04-13T06:21:43.812Z,9.762873
2023-04-13T06:22:43.786Z,9.762816
2023-04-13T06:23:43.785Z,9.762823
2023-04-13T06:24:43.746Z,9.762823
2023-04-13T06:25:43.750Z,9.762823
2023-04-13T06:26:43.783Z,9.762823
2023-04-13T06:27:43.784Z,9.762823
2023-04-13T06:28:43.793Z,9.762823
2023-04-13T06:29:43.750Z,9.762823
2023-04-13T06:30:43.745Z,9.762823
2023-04-13T06:31:43.738Z,9.762823
2023-04-13T06:32:43.791Z,9.762823
2023-04-13T06:33:43.696Z,9.762823
2023-04-13T06:34:43.646Z,9.762823
2023-04-13T06:35:43.722Z,9.762823
2023-04-13T06:36:43.711Z,9.762823
2023-04-13T06:37:43.744Z,9.762394
2023-04-13T06:38:43.654Z,9.762753
2023-04-13T06:39:43.637Z,9.763130
2023-04-13T06:40:43.741Z,9.762760
2023-04-13T06:41:43.704Z,9.763029
2023-04-13T06:42:43.611Z,9.762867
2023-04-13T06:43:43.615Z,9.762867
2023-04-13T06:44:43.637Z,9.762867
2023-04-13T06:45:43.603Z,9.762867
2023-04-13T06:46:43.607Z,9.762867
2023-04-13T06:47:43.602Z,9.762867
2023-04-13T06:48:43.542Z,9.762867
2023-04-13T06:49:43.631Z,9.762867
2023-04-13T06:50:43.507Z,9.762867
2023-04-13T06:51:43.525Z,9.762867
2023-04-13T06:52:43.474Z,9.762867
2023-04-13T06:53:43.485Z,9.762867
2023-04-13T06:54:43.517Z,9.762867
2023-04-13T06:55:43.458Z,9.762867
2023-04-13T06:56:43.470Z,9.762867
2023-04-13T06:57:43.532Z,9.762867
2023-04-13T06:58:43.436Z,9.762867
2023-04-13T06:59:43.484Z,9.762867
2023-04-13T07:00:43.406Z,9.762867
2023-04-13T07:01:43.511Z,9.762867
2023-04-13T07:02:43.584Z,9.762867
2023-04-13T07:03:43.459Z,9.762867
2023-04-13T07:04:43.632Z,9.762867
2023-04-13T07:05:43.396Z,9.762867
2023-04-13T07:06:43.362Z,9.762867
2023-04-13T07:07:43.327Z,9.762867
2023-04-13T07:08:43.387Z,9.762867
2023-04-13T07:09:43.322Z,9.762867
2023-04-13T07:10:43.400Z,9.762867
2023-04-13T07:11:43.332Z,9.762867
2023-04-13T07:12:43.308Z,9.762867
2023-04-13T07:13:43.313Z,9.762867
2023-04-13T07:14:43.368Z,9.762867
2023-04-13T07:15:43.251Z,9.762867
2023-04-13T07:16:43.280Z,9.762867
2023-04-13T07:17:43.342Z,9.762867
2023-04-13T07:18:44.350Z,9.762867
2023-04-13T07:19:43.212Z,9.762867
2023-04-13T07:20:43.236Z,9.762867
2023-04-13T07:21:43.203Z,9.762867
2023-04-13T07:22:43.258Z,9.762867
2023-04-13T07:23:43.229Z,9.762867
2023-04-13T07:24:43.193Z,9.762867
2023-04-13T07:25:43.223Z,9.762867
2023-04-13T07:26:43.194Z,9.762867
2023-04-13T07:27:43.173Z,9.762867
2023-04-13T07:28:43.129Z,9.762867
2023-04-13T07:29:43.154Z,9.762867
2023-04-13T07:30:43.263Z,9.762867
2023-04-13T07:31:43.185Z,9.762867
2023-04-13T07:32:43.127Z,9.762867
2023-04-13T07:33:43.144Z,9.762867
2023-04-13T07:34:43.128Z,9.762867
2023-04-13T07:35:43.110Z,9.762867
2023-04-13T07:36:43.097Z,9.762867
2023-04-13T07:37:43.176Z,9.762867
2023-04-13T07:38:43.227Z,9.762867
2023-04-13T07:39:43.049Z,9.762867
2023-04-13T07:40:43.087Z,9.762867
2023-04-13T07:41:43.029Z,9.762867
2023-04-13T07:42:43.096Z,9.762867
2023-04-13T07:43:43.097Z,9.762867
2023-04-13T07:44:43.025Z,9.762867
2023-04-13T07:45:43.009Z,9.762867
2023-04-13T07:46:43.149Z,9.762867
2023-04-13T07:47:43.040Z,9.762867
2023-04-13T07:48:44.474Z,9.762867
2023-04-13T07:49:42.932Z,9.762867
2023-04-13T07:50:42.908Z,9.762867
2023-04-13T07:51:42.979Z,9.762867
2023-04-13T07:52:42.914Z,9.762867
2023-04-13T07:53:42.898Z,9.762867
2023-04-13T07:54:42.888Z,9.762867
2023-04-13T07:55:42.901Z,9.762867
2023-04-13T07:56:42.844Z,9.762867
2023-04-13T07:57:42.882Z,9.762867
2023-04-13T07:58:42.861Z,9.762867
2023-04-13T07:59:42.873Z,9.762867
2023-04-13T08:00:42.826Z,9.762867
2023-04-13T08:01:42.854Z,9.762867
2023-04-13T08:02:42.973Z,9.762867
2023-04-13T08:03:42.957Z,9.762867
2023-04-13T08:04:42.827Z,9.762867
2023-04-13T08:05:47.055Z,9.762867
2023-04-13T08:08:17.359Z,9.762867
2023-04-13T08:09:09.717Z,9.762867
2023-04-13T08:10:09.747Z,9.762867
2023-04-13T08:11:09.725Z,9.762867
2023-04-13T08:12:09.727Z,9.762867
2023-04-13T08:13:09.700Z,9.762867
2023-04-13T08:14:09.736Z,9.762867
2023-04-13T08:15:09.661Z,9.762867
2023-04-13T08:16:09.721Z,9.762867
2023-04-13T08:17:09.700Z,9.762867
2023-04-13T08:18:09.657Z,9.762867
2023-04-13T08:19:09.653Z,9.762867
2023-04-13T08:20:09.688Z,9.762867
2023-04-13T08:21:09.695Z,9.762867
2023-04-13T08:22:09.677Z,9.762867
2023-04-13T08:23:11.244Z,9.762867
2023-04-13T08:24:09.743Z,9.762867
2023-04-13T08:25:09.676Z,9.762867
2023-04-13T08:26:09.566Z,9.762867
2023-04-13T08:27:09.600Z,9.762867
2023-04-13T08:28:09.610Z,9.762867
2023-04-13T08:29:09.576Z,9.762867
2023-04-13T08:30:09.710Z,9.762867
2023-04-13T08:31:09.526Z,9.762867
2023-04-13T08:32:09.599Z,9.762867
2023-04-13T08:33:09.492Z,9.762867
2023-04-13T08:34:09.501Z,9.762867
2023-04-13T08:35:09.500Z,9.762867
2023-04-13T08:36:09.452Z,9.762867
2023-04-13T08:37:09.483Z,9.762867
2023-04-13T08:38:09.467Z,9.762867
2023-04-13T08:39:09.435Z,9.762867
2023-04-13T08:40:09.447Z,9.762867
2023-04-13T08:41:09.432Z,9.762867
2023-04-13T08:42:09.447Z,9.762867
2023-04-13T08:43:09.409Z,9.762867
2023-04-13T08:44:09.831Z,9.762867
2023-04-13T08:45:09.599Z,9.762867
2023-04-13T08:46:09.524Z,9.762867
2023-04-13T08:47:09.323Z,9.762867
2023-04-13T08:48:09.405Z,9.762867
2023-04-13T08:49:09.340Z,9.762867
2023-04-13T08:50:09.396Z,9.762867
2023-04-13T08:51:09.324Z,9.762867
2023-04-13T08:52:09.330Z,9.762867
2023-04-13T08:53:09.344Z,9.762867
2023-04-13T08:54:09.314Z,9.762867
2023-04-13T08:55:09.282Z,9.762867
2023-04-13T08:56:09.268Z,9.762867
2023-04-13T08:57:09.340Z,9.762867
2023-04-13T08:58:09.259Z,9.762867
2023-04-13T08:59:09.252Z,9.762867
2023-04-13T09:00:09.201Z,9.762867
2023-04-13T09:01:09.254Z,9.762867
2023-04-13T09:02:09.355Z,9.762867
2023-04-13T09:03:11.763Z,9.762867
2023-04-13T09:04:09.278Z,9.762867
2023-04-13T09:05:09.366Z,9.762867
2023-04-13T09:06:09.134Z,9.762867
2023-04-13T09:07:09.310Z,9.762867
2023-04-13T09:08:09.132Z,9.762867
2023-04-13T09:09:09.145Z,9.762867
2023-04-13T09:10:09.103Z,9.762867
2023-04-13T09:11:09.145Z,9.762867
2023-04-13T09:12:09.086Z,9.762867
2023-04-13T09:13:09.085Z,9.762867
2023-04-13T09:14:09.051Z,9.762867
2023-04-13T09:15:09.065Z,9.762867
2023-04-13T09:16:09.122Z,9.762867
2023-04-13T09:17:09.133Z,9.762867
2023-04-13T09:18:44.325Z,9.762867
2023-04-13T09:19:09.044Z,9.762867
2023-04-13T09:20:09.260Z,9.762867
2023-04-13T09:21:08.986Z,9.762867
2023-04-13T09:22:09.008Z,9.762867
2023-04-13T09:23:10.379Z,9.762867
2023-04-13T09:24:08.959Z,9.762867
2023-04-13T09:25:08.988Z,9.762867
2023-04-13T09:26:09.001Z,9.762867
2023-04-13T09:27:08.946Z,9.762867
2023-04-13T09:28:08.967Z,9.762867
2023-04-13T09:29:10.147Z,9.762867
2023-04-13T09:30:11.749Z,9.762867
2023-04-13T09:31:09.124Z,9.762867
2023-04-13T09:32:08.897Z,9.762867
2023-04-13T09:33:08.969Z,9.762867
2023-04-13T09:34:08.858Z,9.762867
2023-04-13T09:35:09.110Z,9.762867
2023-04-13T09:36:08.892Z,9.762867
2023-04-13T09:37:08.920Z,9.762867
2023-04-13T09:38:08.847Z,9.762867
2023-04-13T09:39:08.825Z,9.762867
2023-04-13T09:40:08.819Z,9.762867
2023-04-13T09:41:08.784Z,9.762867
2023-04-13T09:42:08.780Z,9.762867
2023-04-13T09:43:08.768Z,9.762867
2023-04-13T09:44:08.745Z,9.762867
2023-04-13T09:45:08.751Z,9.762867
2023-04-13T09:46:08.744Z,9.762867
2023-04-13T09:47:08.748Z,9.762867
2023-04-13T09:48:08.796Z,9.762867
2023-04-13T09:49:09.611Z,9.762867
2023-04-13T09:50:08.731Z,9.762867
2023-04-13T09:51:08.757Z,9.762867
2023-04-13T09:52:08.709Z,9.762867
2023-04-13T09:53:08.680Z,9.762867
2023-04-13T09:54:08.668Z,9.762867
2023-04-13T09:55:08.732Z,9.762867
2023-04-13T09:56:08.608Z,9.762867
2023-04-13T09:57:08.589Z,9.762867
2023-04-13T09:58:08.566Z,9.762867
2023-04-13T09:59:08.549Z,9.762867
2023-04-13T10:00:08.552Z,9.762867
2023-04-13T10:01:08.560Z,9.762867
2023-04-13T10:02:08.610Z,9.762867
2023-04-13T10:03:08.644Z,9.762867
2023-04-13T10:04:08.507Z,9.762867
2023-04-13T10:05:08.495Z,9.762867
2023-04-13T10:06:08.498Z,9.762867
2023-04-13T10:07:08.494Z,9.762867
2023-04-13T10:08:08.466Z,9.762867
2023-04-13T10:09:08.454Z,9.762867
2023-04-13T10:10:08.440Z,9.762867
2023-04-13T10:11:08.432Z,9.762867
2023-04-13T10:12:08.444Z,9.762867
2023-04-13T10:13:08.463Z,9.762867
2023-04-13T10:14:08.420Z,9.762867
2023-04-13T10:15:08.390Z,9.762867
2023-04-13T10:16:08.386Z,9.762867
2023-04-13T10:17:08.406Z,9.762867
2023-04-13T10:18:08.422Z,9.762867
2023-04-13T10:19:08.343Z,9.762867
2023-04-13T10:20:08.353Z,9.762867
2023-04-13T10:21:08.350Z,9.762867
2023-04-13T10:22:09.375Z,9.762867
2023-04-13T10:23:09.315Z,9.762867
2023-04-13T10:25:10.802Z,9.762867
2023-04-13T10:26:10.279Z,9.762867
2023-04-13T10:27:08.287Z,9.762867
2023-04-13T10:28:08.257Z,9.762867
2023-04-13T10:29:08.267Z,9.762867
2023-04-13T10:30:08.240Z,9.762867
2023-04-13T10:31:08.248Z,9.762867
2023-04-13T10:32:08.377Z,9.762867
2023-04-13T10:33:08.288Z,9.762867
2023-04-13T10:34:08.214Z,9.762867
2023-04-13T10:35:08.183Z,9.762867
2023-04-13T10:36:08.177Z,9.762867
2023-04-13T10:37:08.159Z,9.762867
2023-04-13T10:38:08.183Z,9.762867
2023-04-13T10:39:08.144Z,9.762867
2023-04-13T10:40:08.189Z,9.762867
2023-04-13T10:41:11.994Z,9.762867
2023-04-13T10:42:09.239Z,9.762867
2023-04-13T10:43:08.276Z,9.762644
2023-04-13T10:44:08.151Z,9.762730
2023-04-13T10:45:08.152Z,9.762679
2023-04-13T10:46:08.137Z,9.762784
2023-04-13T10:47:08.165Z,9.762841
2023-04-13T10:48:08.184Z,9.762817
2023-04-13T10:49:08.143Z,9.762829
2023-04-13T10:50:08.108Z,9.762935
2023-04-13T10:51:08.106Z,9.762837
2023-04-13T10:52:08.288Z,9.762789
2023-04-13T10:53:08.140Z,9.762724
2023-04-13T10:54:08.078Z,9.762916
2023-04-13T10:55:08.031Z,9.762860
2023-04-13T10:56:08.030Z,9.762797
2023-04-13T10:57:08.052Z,9.762896
2023-04-13T10:58:08.054Z,9.762841
2023-04-13T10:59:07.997Z,9.763036
2023-04-13T11:00:07.995Z,9.763068
2023-04-13T11:01:07.985Z,9.762507
2023-04-13T11:02:08.163Z,9.763327
2023-04-13T11:03:08.081Z,9.763781
2023-04-13T11:04:11.100Z,9.763446
2023-04-13T11:05:09.954Z,9.762842
2023-04-13T11:06:07.929Z,9.763758
2023-04-13T11:07:07.985Z,9.763325
2023-04-13T11:08:07.950Z,9.763170
2023-04-13T11:09:08.636Z,9.763051
2023-04-13T11:10:07.933Z,9.762699
2023-04-13T11:11:07.984Z,9.762547
2023-04-13T11:12:07.905Z,9.762871
2023-04-13T11:13:07.891Z,9.763189
2023-04-13T11:14:07.915Z,9.763362
2023-04-13T11:15:07.844Z,9.762907
2023-04-13T11:16:07.864Z,9.762785
2023-04-13T11:17:07.917Z,9.762653
2023-04-13T11:18:07.888Z,9.762669
2023-04-13T11:19:07.819Z,9.762654
2023-04-13T11:20:07.818Z,9.762706
2023-04-13T11:21:08.876Z,9.762713
2023-04-13T11:22:13.236Z,9.762754
2023-04-13T11:23:08.811Z,9.762712
2023-04-13T11:24:07.816Z,9.762717
2023-04-13T11:25:07.838Z,9.762718
2023-04-13T11:26:07.804Z,9.762660
2023-04-13T11:27:07.743Z,9.762694
2023-04-13T11:28:07.741Z,9.762758
2023-04-13T11:29:07.739Z,9.762758
2023-04-13T11:30:07.766Z,9.762809
2023-04-13T11:31:07.767Z,9.762725
2023-04-13T11:32:07.718Z,9.762726
2023-04-13T11:33:07.772Z,9.762711
2023-04-13T11:34:07.726Z,9.762644
2023-04-13T11:35:07.683Z,9.762607
2023-04-13T11:36:07.664Z,9.762548
2023-04-13T11:37:07.675Z,9.762647
2023-04-13T11:38:07.642Z,9.762573
2023-04-13T11:39:10.066Z,9.762688
2023-04-13T11:40:07.625Z,9.762540
2023-04-13T11:41:15.631Z,9.762677
2023-04-13T11:42:09.581Z,9.762566
2023-04-13T11:43:07.616Z,9.762547
2023-04-13T11:44:07.630Z,9.762561
2023-04-13T11:45:08.286Z,9.762552
2023-04-13T11:46:07.638Z,9.762706
2023-04-13T11:47:07.612Z,9.762766
2023-04-13T11:48:07.573Z,9.762650
2023-04-13T11:49:07.549Z,9.762506
2023-04-13T11:50:07.930Z,9.762780
2023-04-13T14:26:14.652Z,9.763257
2023-04-13T14:27:12.519Z,9.763191
2023-04-13T14:28:12.587Z,9.762403
2023-04-13T14:29:12.535Z,9.762459
2023-04-13T14:30:12.535Z,9.762376
2023-04-13T14:31:12.537Z,9.761931
2023-04-13T14:32:12.480Z,9.762085
2023-04-13T14:33:12.698Z,9.761990
2023-04-13T14:34:12.492Z,9.761870
2023-04-13T14:35:12.452Z,9.762097
2023-04-13T14:36:12.430Z,9.762250
2023-04-13T14:37:12.426Z,9.762782